createdAt,value
2019-05-23T00:02:25.728Z,5.47
2019-05-23T00:06:32.094Z,5.08
2019-05-23T00:10:43.058Z,6.60
2019-05-23T00:14:53.353Z,5.37
2019-05-23T00:18:58.788Z,5.42
2019-05-23T00:23:04.787Z,6.53
2019-05-23T00:27:10.339Z,6.30
2019-05-23T00:31:37.053Z,5.57
2019-05-23T00:35:43.609Z,5.67
2019-05-23T00:39:48.511Z,5.62
2019-05-23T00:43:55.114Z,5.17
2019-05-23T00:48:01.688Z,5.65
2019-05-23T00:52:07.987Z,6.00
2019-05-23T00:56:13.599Z,6.10
2019-05-23T01:00:21.274Z,5.62
2019-05-23T01:04:28.143Z,5.87
2019-05-23T01:08:33.335Z,5.75
2019-05-23T01:12:38.830Z,6.40
2019-05-23T01:16:44.992Z,6.00
2019-05-23T01:21:07.268Z,5.10
2019-05-23T01:25:14.121Z,4.97
2019-05-23T01:29:20.957Z,5.50
2019-05-23T01:33:25.761Z,6.78
2019-05-23T01:37:31.030Z,6.85
2019-05-23T01:41:36.303Z,7.70
2019-05-23T01:45:42.221Z,6.75
2019-05-23T01:49:47.126Z,10.03
2019-05-23T01:53:52.693Z,9.75
2019-05-23T01:57:57.392Z,8.10
2019-05-23T02:02:02.039Z,5.92
2019-05-23T02:06:06.652Z,6.70
2019-05-23T02:10:12.682Z,7.03
2019-05-23T02:14:17.329Z,7.80
2019-05-23T02:18:23.720Z,6.70
2019-05-23T02:22:28.554Z,7.08
2019-05-23T02:26:33.889Z,9.00
2019-05-23T02:30:38.596Z,8.28
2019-05-23T02:34:43.987Z,7.92
2019-05-23T02:38:58.643Z,7.23
2019-05-23T02:43:04.890Z,7.58
2019-05-23T02:47:25.205Z,6.93
2019-05-23T02:51:35.982Z,7.37
2019-05-23T02:55:40.890Z,7.85
2019-05-23T02:59:49.774Z,5.83
2019-05-23T03:03:56.400Z,5.30
2019-05-23T03:08:01.758Z,6.92
2019-05-23T03:12:09.361Z,6.70
2019-05-23T03:16:21.428Z,6.47
2019-05-23T03:20:27.243Z,7.77
2019-05-23T03:24:33.462Z,7.53
2019-05-23T03:28:42.755Z,7.63
2019-05-23T03:32:53.591Z,6.70
2019-05-23T03:36:59.777Z,7.20
2019-05-23T03:41:04.921Z,7.55
2019-05-23T03:45:13.409Z,8.63
2019-05-23T03:49:19.763Z,7.85
2019-05-23T03:53:27.816Z,7.33
2019-05-23T03:57:34.872Z,6.50
2019-05-23T04:01:47.997Z,7.25
2019-05-23T04:05:46.975Z,8.95
2019-05-23T04:09:51.598Z,6.90
2019-05-23T04:13:56.758Z,7.47
2019-05-23T04:18:01.997Z,9.25
2019-05-23T04:22:08.433Z,9.30
2019-05-23T04:26:13.095Z,9.38
2019-05-23T04:30:17.827Z,9.15
2019-05-23T04:34:22.922Z,9.50
2019-05-23T04:38:27.556Z,8.83
2019-05-23T04:42:32.198Z,10.30
2019-05-23T04:46:37.455Z,9.55
2019-05-23T04:50:42.436Z,9.43
2019-05-23T04:54:47.454Z,10.05
2019-05-23T04:58:52.611Z,10.60
2019-05-23T05:03:00.736Z,9.10
2019-05-23T05:07:07.317Z,8.97
2019-05-23T05:11:12.680Z,13.98
2019-05-23T05:15:17.571Z,12.33
2019-05-23T05:19:22.404Z,13.32
2019-05-23T05:23:27.115Z,11.43
2019-05-23T05:27:33.008Z,10.40
2019-05-23T05:31:37.588Z,11.47
2019-05-23T05:35:43.130Z,11.40
2019-05-23T05:39:48.137Z,11.03
2019-05-23T05:43:53.280Z,11.50
2019-05-23T05:47:57.993Z,11.40
2019-05-23T05:52:03.597Z,12.05
2019-05-23T05:56:08.173Z,12.00
2019-05-23T06:00:30.925Z,12.18
2019-05-23T06:04:35.441Z,11.88
2019-05-23T06:08:41.952Z,11.97
2019-05-23T06:12:46.540Z,11.53
2019-05-23T06:16:52.011Z,11.73
2019-05-23T06:20:56.575Z,10.57
2019-05-23T06:25:01.292Z,10.70
2019-05-23T06:29:06.361Z,9.70
2019-05-23T06:33:22.443Z,9.08
2019-05-23T06:37:17.427Z,7.65
2019-05-23T06:41:23.007Z,6.62
2019-05-23T06:45:27.716Z,6.08
2019-05-23T06:49:32.664Z,5.40
2019-05-23T06:53:37.338Z,4.87
2019-05-23T06:57:41.897Z,5.10
2019-05-23T07:01:46.420Z,4.37
2019-05-23T07:05:51.158Z,3.60
2019-05-23T07:09:56.156Z,3.77
2019-05-23T07:14:00.822Z,3.80
2019-05-23T07:18:05.581Z,3.97
2019-05-23T07:22:11.870Z,4.10
2019-05-23T07:26:16.720Z,3.97
2019-05-23T07:30:24.340Z,3.57
2019-05-23T07:34:29.797Z,4.60
2019-05-23T07:38:34.358Z,3.40
2019-05-23T07:42:39.040Z,3.40
2019-05-23T07:46:43.590Z,3.00
2019-05-23T07:50:48.387Z,20.70
2019-05-23T07:55:04.464Z,3.40
2019-05-23T07:59:09.123Z,2.47
2019-05-23T08:03:15.086Z,2.03
2019-05-23T08:07:21.350Z,1.50
2019-05-23T08:11:25.972Z,1.83
2019-05-23T08:15:30.669Z,1.20
2019-05-23T08:19:48.524Z,1.43
2019-05-23T08:23:41.885Z,1.97
2019-05-23T08:27:46.445Z,1.40
2019-05-23T08:31:51.503Z,1.70
2019-05-23T08:35:57.026Z,1.57
2019-05-23T08:40:01.730Z,1.10
2019-05-23T08:44:10.725Z,1.23
2019-05-23T08:48:13.624Z,1.40
2019-05-23T08:52:18.176Z,1.83
2019-05-23T08:56:22.982Z,1.63
2019-05-23T09:00:29.554Z,1.37
2019-05-23T09:04:34.094Z,1.17
2019-05-23T09:08:39.777Z,1.10
2019-05-23T09:12:44.323Z,1.00
2019-05-23T09:16:49.030Z,1.20
2019-05-23T09:20:53.691Z,1.00
2019-05-23T09:24:58.236Z,1.20
2019-05-23T09:29:03.009Z,1.30
2019-05-23T09:33:08.058Z,1.13
2019-05-23T09:37:13.379Z,1.40
2019-05-23T09:41:17.935Z,1.37
2019-05-23T09:45:22.588Z,1.50
2019-05-23T09:49:27.194Z,1.57
2019-05-23T09:53:32.284Z,1.17
2019-05-23T09:57:36.786Z,1.60
2019-05-23T10:01:41.381Z,2.17
2019-05-23T10:05:46.131Z,1.20
2019-05-23T10:09:50.687Z,1.60
2019-05-23T10:13:55.357Z,2.33
2019-05-23T10:18:00.995Z,2.43
2019-05-23T10:22:06.849Z,2.67
2019-05-23T10:26:12.415Z,1.93
2019-05-23T10:30:18.242Z,2.20
2019-05-23T10:34:22.915Z,2.40
2019-05-23T10:38:29.417Z,3.63
2019-05-23T10:42:34.148Z,2.80
2019-05-23T10:46:38.921Z,2.83
2019-05-23T10:50:45.096Z,3.13
2019-05-23T10:54:49.679Z,5.30
2019-05-23T10:58:54.260Z,4.87
2019-05-23T11:02:59.454Z,4.97
2019-05-23T11:07:05.800Z,5.17
2019-05-23T11:11:14.172Z,4.50
2019-05-23T11:15:17.797Z,4.30
2019-05-23T11:19:23.236Z,4.03
2019-05-23T11:23:34.565Z,3.57
2019-05-23T11:27:39.105Z,3.90
2019-05-23T11:31:44.059Z,3.40
2019-05-23T11:35:48.712Z,3.67
2019-05-23T11:39:53.309Z,3.30
2019-05-23T11:43:57.940Z,4.20
2019-05-23T11:48:02.626Z,3.10
2019-05-23T11:52:07.778Z,3.23
2019-05-23T11:56:12.396Z,3.40
2019-05-23T12:00:19.095Z,4.10
2019-05-23T12:04:26.813Z,4.20
2019-05-23T12:08:32.655Z,3.63
2019-05-23T12:12:37.251Z,4.57
2019-05-23T12:16:41.885Z,4.50
2019-05-23T12:20:46.576Z,4.10
2019-05-23T12:24:51.132Z,4.20
2019-05-23T12:28:56.481Z,5.03
2019-05-23T12:33:01.135Z,4.90
2019-05-23T12:37:21.297Z,5.50
2019-05-23T12:41:13.599Z,4.90
2019-05-23T12:45:18.234Z,5.80
2019-05-23T12:49:33.957Z,4.53
2019-05-23T12:53:38.531Z,4.90
2019-05-23T12:57:43.084Z,5.83
2019-05-23T13:01:49.614Z,5.20
2019-05-23T13:05:54.213Z,4.83
2019-05-23T13:09:58.677Z,5.10
2019-05-23T13:14:03.339Z,4.87
2019-05-23T13:18:07.997Z,5.20
2019-05-23T13:22:13.232Z,5.70
2019-05-23T13:26:17.804Z,4.47
2019-05-23T13:30:22.732Z,5.27
2019-05-23T13:34:27.313Z,5.37
2019-05-23T13:38:32.289Z,5.80
2019-05-23T13:42:37.362Z,5.63
2019-05-23T13:46:41.889Z,5.43
2019-05-23T13:50:46.442Z,5.50
2019-05-23T13:54:50.995Z,6.30
2019-05-23T13:58:55.640Z,5.77
2019-05-23T14:03:00.201Z,7.63
2019-05-23T14:07:06.650Z,6.10
2019-05-23T14:11:11.358Z,5.90
2019-05-23T14:15:19.713Z,5.33
2019-05-23T14:19:24.267Z,5.90
2019-05-23T14:23:32.944Z,5.23
2019-05-23T14:27:57.878Z,4.43
2019-05-23T14:32:14.703Z,4.13
2019-05-23T14:36:40.963Z,5.70
2019-05-23T14:40:47.092Z,4.70
2019-05-23T14:44:51.850Z,5.77
2019-05-23T14:49:11.356Z,5.83
2019-05-23T14:53:17.093Z,5.87
2019-05-23T14:57:22.239Z,5.63
2019-05-23T15:01:28.696Z,4.97
2019-05-23T15:05:33.254Z,5.80
2019-05-23T15:09:37.797Z,5.00
2019-05-23T15:13:42.383Z,4.90
2019-05-23T15:17:46.977Z,5.20
2019-05-23T15:21:51.543Z,4.33
2019-05-23T15:25:56.112Z,5.03
2019-05-23T15:30:00.887Z,5.13
2019-05-23T15:34:05.584Z,4.37
2019-05-23T15:38:10.135Z,4.27
2019-05-23T15:42:14.682Z,4.60
2019-05-23T15:46:19.244Z,4.50
2019-05-23T15:50:27.210Z,4.60
2019-05-23T15:54:46.443Z,4.90
2019-05-23T15:59:15.733Z,4.43
2019-05-23T16:03:39.537Z,5.00
2019-05-23T16:07:44.180Z,4.43
2019-05-23T16:11:49.132Z,4.80
2019-05-23T16:15:53.880Z,4.40
2019-05-23T16:19:58.729Z,3.83
2019-05-23T16:24:04.259Z,4.03
2019-05-23T16:28:08.843Z,4.23
2019-05-23T16:32:13.967Z,4.67
2019-05-23T16:36:18.616Z,3.93
2019-05-23T16:40:23.232Z,3.93
2019-05-23T16:44:27.856Z,4.30
2019-05-23T16:48:32.528Z,3.47
2019-05-23T16:52:37.417Z,3.47
2019-05-23T16:56:52.304Z,3.53
2019-05-23T17:01:05.242Z,3.30
2019-05-23T17:05:31.565Z,3.87
2019-05-23T17:10:09.020Z,4.33
2019-05-23T17:14:19.093Z,3.40
2019-05-23T17:18:41.443Z,3.77
2019-05-23T17:22:53.926Z,3.83
2019-05-23T17:27:26.242Z,3.47
2019-05-23T17:31:34.794Z,3.50
2019-05-23T17:35:39.728Z,4.33
2019-05-23T17:39:46.236Z,4.00
2019-05-23T17:43:50.798Z,4.47
2019-05-23T17:47:55.870Z,3.97
2019-05-23T17:52:00.507Z,4.03
2019-05-23T17:56:05.367Z,3.77
2019-05-23T18:00:12.883Z,4.13
2019-05-23T18:04:17.789Z,3.97
2019-05-23T18:08:22.556Z,3.47
2019-05-23T18:12:27.222Z,3.17
2019-05-23T18:16:31.784Z,4.03
2019-05-23T18:20:37.359Z,3.77
2019-05-23T18:24:42.010Z,3.57
2019-05-23T18:28:46.613Z,3.47
2019-05-23T18:32:52.896Z,3.23
2019-05-23T18:36:57.691Z,4.23
2019-05-23T18:41:08.495Z,4.00
2019-05-23T18:45:09.020Z,4.90
2019-05-23T18:49:15.268Z,4.80
2019-05-23T18:53:19.933Z,4.90
2019-05-23T18:57:24.771Z,5.67
2019-05-23T19:01:29.427Z,5.50
2019-05-23T19:05:34.176Z,5.20
2019-05-23T19:09:39.281Z,5.47
2019-05-23T19:13:50.993Z,5.10
2019-05-23T19:17:55.971Z,4.40
2019-05-23T19:22:00.613Z,4.20
2019-05-23T19:26:06.270Z,5.13
2019-05-23T19:30:11.965Z,4.40
2019-05-23T19:34:16.590Z,5.20
2019-05-23T19:38:21.243Z,5.20
2019-05-23T19:42:26.146Z,4.57
2019-05-23T19:46:30.828Z,5.67
2019-05-23T19:50:42.078Z,5.13
2019-05-23T19:54:46.712Z,4.47
2019-05-23T19:58:51.343Z,4.93
2019-05-23T20:02:57.932Z,5.00
2019-05-23T20:07:02.895Z,5.20
2019-05-23T20:11:08.217Z,5.27
2019-05-23T20:15:12.978Z,5.33
2019-05-23T20:19:17.615Z,6.17
2019-05-23T20:23:22.348Z,6.70
2019-05-23T20:27:26.979Z,6.10
2019-05-23T20:31:32.180Z,5.47
2019-05-23T20:35:36.786Z,6.37
2019-05-23T20:39:41.587Z,6.10
2019-05-23T20:43:46.169Z,6.10
2019-05-23T20:47:50.800Z,6.10
2019-05-23T20:51:55.569Z,5.70
2019-05-23T20:56:00.475Z,6.20
2019-05-23T21:00:06.993Z,5.83
2019-05-23T21:04:11.579Z,5.50
2019-05-23T21:08:16.240Z,6.33
2019-05-23T21:12:29.394Z,5.90
2019-05-23T21:16:27.249Z,6.23
2019-05-23T21:20:31.852Z,5.90
2019-05-23T21:24:36.553Z,5.93
2019-05-23T21:28:41.156Z,6.33
2019-05-23T21:32:45.810Z,6.37
2019-05-23T21:36:50.403Z,7.10
2019-05-23T21:40:55.028Z,6.33
2019-05-23T21:44:59.712Z,6.60
2019-05-23T21:49:04.862Z,6.77
2019-05-23T21:53:10.358Z,7.17
2019-05-23T21:57:16.349Z,7.13
2019-05-23T22:01:39.424Z,7.43
2019-05-23T22:05:44.107Z,6.93
2019-05-23T22:09:48.849Z,6.80
2019-05-23T22:13:53.660Z,7.53
2019-05-23T22:17:58.861Z,7.67
2019-05-23T22:22:04.346Z,9.30
2019-05-23T22:26:09.024Z,8.40
2019-05-23T22:30:15.154Z,8.60
2019-05-23T22:34:41.737Z,8.33
2019-05-23T22:38:46.460Z,8.40
2019-05-23T22:42:51.279Z,8.60
2019-05-23T22:46:56.094Z,8.97
2019-05-23T22:51:00.727Z,9.37
2019-05-23T22:55:05.677Z,9.00
2019-05-23T22:59:10.355Z,8.37
2019-05-23T23:03:14.998Z,9.20
2019-05-23T23:07:20.418Z,9.07
2019-05-23T23:11:24.995Z,8.97
2019-05-23T23:15:31.534Z,9.63
2019-05-23T23:19:36.165Z,10.60
2019-05-23T23:23:40.844Z,8.93
2019-05-23T23:27:45.500Z,9.70
2019-05-23T23:31:50.111Z,10.43
2019-05-23T23:35:54.737Z,9.87
2019-05-23T23:39:59.367Z,10.13
2019-05-23T23:44:04.077Z,10.23
2019-05-23T23:48:26.641Z,10.83
2019-05-23T23:52:48.804Z,10.30
2019-05-23T23:57:10.880Z,11.23
